sensor_id;sensor_type;location;lat;lon;timestamp;temperature;humidity
1049;DHT22;513;51.444;7.196;2022-11-23T00:01:20;7.30;99.90
1049;DHT22;513;51.444;7.196;2022-11-23T00:03:49;7.30;99.90
1049;DHT22;513;51.444;7.196;2022-11-23T00:06:16;7.30;99.90
1049;DHT22;513;51.444;7.196;2022-11-23T00:08:44;7.30;99.90
1049;DHT22;513;51.444;7.196;2022-11-23T00:11:11;7.30;99.90
1049;DHT22;513;51.444;7.196;2022-11-23T00:13:38;7.30;99.90
1049;DHT22;513;51.444;7.196;2022-11-23T00:16:06;7.30;99.90
1049;DHT22;513;51.444;7.196;2022-11-23T00:18:34;7.30;99.90
1049;DHT22;513;51.444;7.196;2022-11-23T00:21:05;7.40;99.90
1049;DHT22;513;51.444;7.196;2022-11-23T00:23:32;7.40;99.90
1049;DHT22;513;51.444;7.196;2022-11-23T00:25:58;7.50;99.90
1049;DHT22;513;51.444;7.196;2022-11-23T00:28:25;7.50;99.90
1049;DHT22;513;51.444;7.196;2022-11-23T00:30:52;7.50;99.90
1049;DHT22;513;51.444;7.196;2022-11-23T00:33:18;7.50;99.90
1049;DHT22;513;51.444;7.196;2022-11-23T00:35:46;7.50;99.90
1049;DHT22;513;51.444;7.196;2022-11-23T00:38:13;7.50;99.90
1049;DHT22;513;51.444;7.196;2022-11-23T00:40:40;7.60;99.90
1049;DHT22;513;51.444;7.196;2022-11-23T00:43:06;7.60;99.90
1049;DHT22;513;51.444;7.196;2022-11-23T00:45:33;7.60;99.90
1049;DHT22;513;51.444;7.196;2022-11-23T00:48:00;7.70;99.90
1049;DHT22;513;51.444;7.196;2022-11-23T00:50:27;7.70;99.90
1049;DHT22;513;51.444;7.196;2022-11-23T00:52:55;7.70;99.90
1049;DHT22;513;51.444;7.196;2022-11-23T00:55:21;7.70;99.90
1049;DHT22;513;51.444;7.196;2022-11-23T00:57:48;7.70;99.90
1049;DHT22;513;51.444;7.196;2022-11-23T01:00:15;7.70;99.90
1049;DHT22;513;51.444;7.196;2022-11-23T01:02:42;7.70;99.90
1049;DHT22;513;51.444;7.196;2022-11-23T01:05:09;7.70;99.90
1049;DHT22;513;51.444;7.196;2022-11-23T01:07:35;7.80;99.90
1049;DHT22;513;51.444;7.196;2022-11-23T01:10:04;7.70;99.90
1049;DHT22;513;51.444;7.196;2022-11-23T01:12:32;7.80;99.90
1049;DHT22;513;51.444;7.196;2022-11-23T01:14:59;7.80;99.90
1049;DHT22;513;51.444;7.196;2022-11-23T01:17:26;7.80;99.90
1049;DHT22;513;51.444;7.196;2022-11-23T01:19:53;7.80;99.90
1049;DHT22;513;51.444;7.196;2022-11-23T01:22:19;7.80;99.90
1049;DHT22;513;51.444;7.196;2022-11-23T01:24:46;7.80;99.90
1049;DHT22;513;51.444;7.196;2022-11-23T01:27:14;7.80;99.90
1049;DHT22;513;51.444;7.196;2022-11-23T01:29:41;7.90;99.90
1049;DHT22;513;51.444;7.196;2022-11-23T01:32:07;7.90;99.90
1049;DHT22;513;51.444;7.196;2022-11-23T01:34:34;7.80;99.90
1049;DHT22;513;51.444;7.196;2022-11-23T01:37:01;7.80;99.90
1049;DHT22;513;51.444;7.196;2022-11-23T01:39:28;7.80;99.90
1049;DHT22;513;51.444;7.196;2022-11-23T01:41:54;7.80;99.90
1049;DHT22;513;51.444;7.196;2022-11-23T01:44:28;7.80;99.90
1049;DHT22;513;51.444;7.196;2022-11-23T01:46:56;7.70;99.90
1049;DHT22;513;51.444;7.196;2022-11-23T01:49:24;7.70;99.90
1049;DHT22;513;51.444;7.196;2022-11-23T01:51:55;7.70;99.90
1049;DHT22;513;51.444;7.196;2022-11-23T01:54:25;7.70;99.90
1049;DHT22;513;51.444;7.196;2022-11-23T01:56:56;7.70;99.90
1049;DHT22;513;51.444;7.196;2022-11-23T01:59:27;7.70;99.90
1049;DHT22;513;51.444;7.196;2022-11-23T02:01:55;7.60;99.90
1049;DHT22;513;51.444;7.196;2022-11-23T02:04:24;7.70;99.90
1049;DHT22;513;51.444;7.196;2022-11-23T02:06:54;7.70;99.90
1049;DHT22;513;51.444;7.196;2022-11-23T02:09:22;7.70;99.90
1049;DHT22;513;51.444;7.196;2022-11-23T02:11:50;7.70;99.90
1049;DHT22;513;51.444;7.196;2022-11-23T02:14:17;7.70;99.90
1049;DHT22;513;51.444;7.196;2022-11-23T02:16:45;7.70;99.90
1049;DHT22;513;51.444;7.196;2022-11-23T02:19:18;7.70;99.90
1049;DHT22;513;51.444;7.196;2022-11-23T02:21:51;7.70;99.90
1049;DHT22;513;51.444;7.196;2022-11-23T02:24:24;7.80;99.90
1049;DHT22;513;51.444;7.196;2022-11-23T02:26:54;7.80;99.90
1049;DHT22;513;51.444;7.196;2022-11-23T02:29:22;7.80;99.90
1049;DHT22;513;51.444;7.196;2022-11-23T02:31:49;7.80;99.90
1049;DHT22;513;51.444;7.196;2022-11-23T02:34:17;7.80;99.90
1049;DHT22;513;51.444;7.196;2022-11-23T02:36:45;7.90;99.90
1049;DHT22;513;51.444;7.196;2022-11-23T02:39:15;7.90;99.90
1049;DHT22;513;51.444;7.196;2022-11-23T02:41:44;7.90;99.90
1049;DHT22;513;51.444;7.196;2022-11-23T02:44:28;7.90;99.90
1049;DHT22;513;51.444;7.196;2022-11-23T02:46:57;7.90;99.90
1049;DHT22;513;51.444;7.196;2022-11-23T02:49:24;7.90;99.90
1049;DHT22;513;51.444;7.196;2022-11-23T02:51:51;7.90;99.90
1049;DHT22;513;51.444;7.196;2022-11-23T02:54:17;8.00;99.90
1049;DHT22;513;51.444;7.196;2022-11-23T02:56:44;8.00;99.90
1049;DHT22;513;51.444;7.196;2022-11-23T02:59:11;8.00;99.90
1049;DHT22;513;51.444;7.196;2022-11-23T03:01:39;8.00;99.90
1049;DHT22;513;51.444;7.196;2022-11-23T03:04:06;8.00;99.90
1049;DHT22;513;51.444;7.196;2022-11-23T03:06:33;8.00;99.90
1049;DHT22;513;51.444;7.196;2022-11-23T03:08:59;8.00;99.90
1049;DHT22;513;51.444;7.196;2022-11-23T03:11:26;8.00;99.90
1049;DHT22;513;51.444;7.196;2022-11-23T03:13:53;8.00;99.90
1049;DHT22;513;51.444;7.196;2022-11-23T03:16:19;8.00;99.90
1049;DHT22;513;51.444;7.196;2022-11-23T03:18:47;8.00;99.90
1049;DHT22;513;51.444;7.196;2022-11-23T03:21:14;8.00;99.90
1049;DHT22;513;51.444;7.196;2022-11-23T03:23:41;8.00;99.90
1049;DHT22;513;51.444;7.196;2022-11-23T03:26:08;8.00;99.90
1049;DHT22;513;51.444;7.196;2022-11-23T03:28:34;8.00;99.90
1049;DHT22;513;51.444;7.196;2022-11-23T03:31:01;8.00;99.90
1049;DHT22;513;51.444;7.196;2022-11-23T03:33:28;7.80;99.90
1049;DHT22;513;51.444;7.196;2022-11-23T03:35:56;7.80;99.90
1049;DHT22;513;51.444;7.196;2022-11-23T03:38:23;7.80;99.90
1049;DHT22;513;51.444;7.196;2022-11-23T03:40:50;7.70;99.90
1049;DHT22;513;51.444;7.196;2022-11-23T03:43:16;7.70;99.90
1049;DHT22;513;51.444;7.196;2022-11-23T03:45:44;7.70;99.90
1049;DHT22;513;51.444;7.196;2022-11-23T03:48:10;7.60;99.90
1049;DHT22;513;51.444;7.196;2022-11-23T03:50:37;7.50;99.90
1049;DHT22;513;51.444;7.196;2022-11-23T03:53:05;7.50;99.90
1049;DHT22;513;51.444;7.196;2022-11-23T03:55:32;7.50;99.90
1049;DHT22;513;51.444;7.196;2022-11-23T03:57:59;7.50;99.90
1049;DHT22;513;51.444;7.196;2022-11-23T04:00:27;7.60;99.90
1049;DHT22;513;51.444;7.196;2022-11-23T04:02:54;7.50;99.90
1049;DHT22;513;51.444;7.196;2022-11-23T04:05:20;7.50;99.90
1049;DHT22;513;51.444;7.196;2022-11-23T04:07:48;7.50;99.90
1049;DHT22;513;51.444;7.196;2022-11-23T04:10:18;7.50;99.90
1049;DHT22;513;51.444;7.196;2022-11-23T04:12:48;7.50;99.90
1049;DHT22;513;51.444;7.196;2022-11-23T04:15:15;7.50;99.90
1049;DHT22;513;51.444;7.196;2022-11-23T04:17:42;7.50;99.90
1049;DHT22;513;51.444;7.196;2022-11-23T04:20:09;7.50;99.90
1049;DHT22;513;51.444;7.196;2022-11-23T04:22:36;7.40;99.90
1049;DHT22;513;51.444;7.196;2022-11-23T04:25:03;7.40;99.90
1049;DHT22;513;51.444;7.196;2022-11-23T04:27:31;7.40;99.90
1049;DHT22;513;51.444;7.196;2022-11-23T04:29:58;7.40;99.90
1049;DHT22;513;51.444;7.196;2022-11-23T04:32:25;7.40;99.90
1049;DHT22;513;51.444;7.196;2022-11-23T04:34:51;7.40;99.90
1049;DHT22;513;51.444;7.196;2022-11-23T04:37:18;7.40;99.90
1049;DHT22;513;51.444;7.196;2022-11-23T04:39:44;7.40;99.90
1049;DHT22;513;51.444;7.196;2022-11-23T04:42:11;7.40;99.90
1049;DHT22;513;51.444;7.196;2022-11-23T04:44:39;7.40;99.90
1049;DHT22;513;51.444;7.196;2022-11-23T04:47:06;7.40;99.90
1049;DHT22;513;51.444;7.196;2022-11-23T04:49:32;7.40;99.90
1049;DHT22;513;51.444;7.196;2022-11-23T04:51:59;7.50;99.90
1049;DHT22;513;51.444;7.196;2022-11-23T04:54:26;7.50;99.90
1049;DHT22;513;51.444;7.196;2022-11-23T04:56:52;7.50;99.90
1049;DHT22;513;51.444;7.196;2022-11-23T04:59:20;7.50;99.90
1049;DHT22;513;51.444;7.196;2022-11-23T05:01:48;7.50;99.90
1049;DHT22;513;51.444;7.196;2022-11-23T05:04:16;7.50;99.90
1049;DHT22;513;51.444;7.196;2022-11-23T05:06:43;7.40;99.90
1049;DHT22;513;51.444;7.196;2022-11-23T05:09:10;7.40;99.90
1049;DHT22;513;51.444;7.196;2022-11-23T05:11:36;7.40;99.90
1049;DHT22;513;51.444;7.196;2022-11-23T05:14:03;7.40;99.90
1049;DHT22;513;51.444;7.196;2022-11-23T05:16:30;7.40;99.90
1049;DHT22;513;51.444;7.196;2022-11-23T05:18:58;7.40;99.90
1049;DHT22;513;51.444;7.196;2022-11-23T05:21:24;7.40;99.90
1049;DHT22;513;51.444;7.196;2022-11-23T05:23:51;7.40;99.90
1049;DHT22;513;51.444;7.196;2022-11-23T05:26:18;7.40;99.90
1049;DHT22;513;51.444;7.196;2022-11-23T05:28:45;7.40;99.90
1049;DHT22;513;51.444;7.196;2022-11-23T05:31:12;7.40;99.90
1049;DHT22;513;51.444;7.196;2022-11-23T05:33:38;7.40;99.90
1049;DHT22;513;51.444;7.196;2022-11-23T05:36:07;7.40;99.90
1049;DHT22;513;51.444;7.196;2022-11-23T05:38:38;7.40;99.90
1049;DHT22;513;51.444;7.196;2022-11-23T05:41:04;7.40;99.90
1049;DHT22;513;51.444;7.196;2022-11-23T05:43:31;7.40;99.90
1049;DHT22;513;51.444;7.196;2022-11-23T05:45:58;7.40;99.90
1049;DHT22;513;51.444;7.196;2022-11-23T05:48:25;7.40;99.90
1049;DHT22;513;51.444;7.196;2022-11-23T05:50:52;7.40;99.90
1049;DHT22;513;51.444;7.196;2022-11-23T05:53:20;7.40;99.90
1049;DHT22;513;51.444;7.196;2022-11-23T05:55:47;7.50;99.90
1049;DHT22;513;51.444;7.196;2022-11-23T05:58:14;7.50;99.90
1049;DHT22;513;51.444;7.196;2022-11-23T06:00:41;7.50;99.90
1049;DHT22;513;51.444;7.196;2022-11-23T06:03:07;7.50;99.90
1049;DHT22;513;51.444;7.196;2022-11-23T06:05:34;7.50;99.90
1049;DHT22;513;51.444;7.196;2022-11-23T06:08:01;7.50;99.90
1049;DHT22;513;51.444;7.196;2022-11-23T06:10:28;7.50;99.90
1049;DHT22;513;51.444;7.196;2022-11-23T06:13:03;7.50;99.90
1049;DHT22;513;51.444;7.196;2022-11-23T06:15:30;7.50;99.90
1049;DHT22;513;51.444;7.196;2022-11-23T06:18:00;7.50;99.90
1049;DHT22;513;51.444;7.196;2022-11-23T06:20:28;7.50;99.90
1049;DHT22;513;51.444;7.196;2022-11-23T06:22:55;7.50;99.90
1049;DHT22;513;51.444;7.196;2022-11-23T06:25:22;7.50;99.90
1049;DHT22;513;51.444;7.196;2022-11-23T06:27:54;7.40;99.90
1049;DHT22;513;51.444;7.196;2022-11-23T06:30:21;7.40;99.90
1049;DHT22;513;51.444;7.196;2022-11-23T06:32:48;7.40;99.90
1049;DHT22;513;51.444;7.196;2022-11-23T06:35:15;7.40;99.90
1049;DHT22;513;51.444;7.196;2022-11-23T06:37:42;7.40;99.90
1049;DHT22;513;51.444;7.196;2022-11-23T06:40:09;7.40;99.90
1049;DHT22;513;51.444;7.196;2022-11-23T06:42:36;7.40;99.90
1049;DHT22;513;51.444;7.196;2022-11-23T06:45:06;7.40;99.90
1049;DHT22;513;51.444;7.196;2022-11-23T06:47:33;7.40;99.90
1049;DHT22;513;51.444;7.196;2022-11-23T06:49:59;7.40;99.90
1049;DHT22;513;51.444;7.196;2022-11-23T06:52:26;7.40;99.90
1049;DHT22;513;51.444;7.196;2022-11-23T06:54:53;7.40;99.90
1049;DHT22;513;51.444;7.196;2022-11-23T06:57:19;7.40;99.90
1049;DHT22;513;51.444;7.196;2022-11-23T06:59:46;7.40;99.90
1049;DHT22;513;51.444;7.196;2022-11-23T07:02:14;7.40;99.90
1049;DHT22;513;51.444;7.196;2022-11-23T07:04:41;7.50;99.90
1049;DHT22;513;51.444;7.196;2022-11-23T07:07:08;7.50;99.90
1049;DHT22;513;51.444;7.196;2022-11-23T07:09:35;7.50;99.90
1049;DHT22;513;51.444;7.196;2022-11-23T07:12:02;7.40;99.90
1049;DHT22;513;51.444;7.196;2022-11-23T07:14:29;7.40;99.90
1049;DHT22;513;51.444;7.196;2022-11-23T07:16:55;7.50;99.90
1049;DHT22;513;51.444;7.196;2022-11-23T07:19:23;7.40;99.90
1049;DHT22;513;51.444;7.196;2022-11-23T07:21:50;7.40;99.90
1049;DHT22;513;51.444;7.196;2022-11-23T07:24:17;7.40;99.90
1049;DHT22;513;51.444;7.196;2022-11-23T07:26:44;7.40;99.90
1049;DHT22;513;51.444;7.196;2022-11-23T07:29:10;7.40;99.90
1049;DHT22;513;51.444;7.196;2022-11-23T07:31:37;7.40;99.90
1049;DHT22;513;51.444;7.196;2022-11-23T07:34:04;7.40;99.90
1049;DHT22;513;51.444;7.196;2022-11-23T07:36:32;7.50;99.90
1049;DHT22;513;51.444;7.196;2022-11-23T07:38:58;7.50;99.90
1049;DHT22;513;51.444;7.196;2022-11-23T07:41:25;7.50;99.90
1049;DHT22;513;51.444;7.196;2022-11-23T07:43:52;7.60;99.90
1049;DHT22;513;51.444;7.196;2022-11-23T07:46:20;7.60;99.90
1049;DHT22;513;51.444;7.196;2022-11-23T07:48:46;7.60;99.90
1049;DHT22;513;51.444;7.196;2022-11-23T07:51:13;7.60;99.90
1049;DHT22;513;51.444;7.196;2022-11-23T07:53:41;7.60;99.90
1049;DHT22;513;51.444;7.196;2022-11-23T07:56:08;7.70;99.90
1049;DHT22;513;51.444;7.196;2022-11-23T07:58:35;7.70;99.90
1049;DHT22;513;51.444;7.196;2022-11-23T08:01:02;7.70;99.90
1049;DHT22;513;51.444;7.196;2022-11-23T08:03:28;7.70;99.90
1049;DHT22;513;51.444;7.196;2022-11-23T08:05:55;7.80;99.90
1049;DHT22;513;51.444;7.196;2022-11-23T08:08:22;7.90;99.90
1049;DHT22;513;51.444;7.196;2022-11-23T08:10:50;7.90;99.90
1049;DHT22;513;51.444;7.196;2022-11-23T08:13:16;7.90;99.90
1049;DHT22;513;51.444;7.196;2022-11-23T08:15:44;7.90;99.90
1049;DHT22;513;51.444;7.196;2022-11-23T08:18:11;8.00;99.90
1049;DHT22;513;51.444;7.196;2022-11-23T08:20:38;8.10;99.90
1049;DHT22;513;51.444;7.196;2022-11-23T08:23:04;8.10;99.90
1049;DHT22;513;51.444;7.196;2022-11-23T08:25:31;8.10;99.90
1049;DHT22;513;51.444;7.196;2022-11-23T08:28:00;8.10;99.90
1049;DHT22;513;51.444;7.196;2022-11-23T08:30:29;8.10;99.90
1049;DHT22;513;51.444;7.196;2022-11-23T08:32:56;8.20;99.90
1049;DHT22;513;51.444;7.196;2022-11-23T08:35:23;8.20;99.90
1049;DHT22;513;51.444;7.196;2022-11-23T08:37:50;8.20;99.90
1049;DHT22;513;51.444;7.196;2022-11-23T08:40:17;8.30;99.90
1049;DHT22;513;51.444;7.196;2022-11-23T08:42:45;8.30;99.10
1049;DHT22;513;51.444;7.196;2022-11-23T08:45:13;8.40;98.40
1049;DHT22;513;51.444;7.196;2022-11-23T08:47:39;8.40;79.90
1049;DHT22;513;51.444;7.196;2022-11-23T08:50:07;8.40;75.00
1049;DHT22;513;51.444;7.196;2022-11-23T08:52:34;8.40;60.80
1049;DHT22;513;51.444;7.196;2022-11-23T08:55:01;8.40;68.10
1049;DHT22;513;51.444;7.196;2022-11-23T08:57:27;8.40;75.00
1049;DHT22;513;51.444;7.196;2022-11-23T08:59:54;8.50;58.00
1049;DHT22;513;51.444;7.196;2022-11-23T09:02:22;8.60;38.00
1049;DHT22;513;51.444;7.196;2022-11-23T09:04:49;8.60;44.20
1049;DHT22;513;51.444;7.196;2022-11-23T09:07:16;8.70;38.20
1049;DHT22;513;51.444;7.196;2022-11-23T09:09:42;8.70;16.70
1049;DHT22;513;51.444;7.196;2022-11-23T09:12:09;8.80;12.20
1049;DHT22;513;51.444;7.196;2022-11-23T09:14:35;8.80;8.00
1049;DHT22;513;51.444;7.196;2022-11-23T09:17:03;8.90;8.40
1049;DHT22;513;51.444;7.196;2022-11-23T09:19:31;8.90;1.00
1049;DHT22;513;51.444;7.196;2022-11-23T09:21:58;8.90;1.00
1049;DHT22;513;51.444;7.196;2022-11-23T09:24:24;8.90;1.00
1049;DHT22;513;51.444;7.196;2022-11-23T09:26:52;9.00;1.00
1049;DHT22;513;51.444;7.196;2022-11-23T09:29:19;9.00;1.00
1049;DHT22;513;51.444;7.196;2022-11-23T09:31:45;9.10;1.00
1049;DHT22;513;51.444;7.196;2022-11-23T09:34:12;9.10;1.00
1049;DHT22;513;51.444;7.196;2022-11-23T09:36:40;9.10;1.00
1049;DHT22;513;51.444;7.196;2022-11-23T09:39:07;9.10;1.00
1049;DHT22;513;51.444;7.196;2022-11-23T09:42:01;9.10;1.00
1049;DHT22;513;51.444;7.196;2022-11-23T09:44:39;9.10;1.00
1049;DHT22;513;51.444;7.196;2022-11-23T09:47:24;9.10;1.00
1049;DHT22;513;51.444;7.196;2022-11-23T09:49:59;9.10;1.00
1049;DHT22;513;51.444;7.196;2022-11-23T09:52:30;9.20;1.00
1049;DHT22;513;51.444;7.196;2022-11-23T09:55:02;9.20;1.00
1049;DHT22;513;51.444;7.196;2022-11-23T09:57:32;9.30;1.00
1049;DHT22;513;51.444;7.196;2022-11-23T10:00:03;9.40;1.00
1049;DHT22;513;51.444;7.196;2022-11-23T10:02:31;9.40;1.00
1049;DHT22;513;51.444;7.196;2022-11-23T10:05:00;9.40;1.00
1049;DHT22;513;51.444;7.196;2022-11-23T10:07:40;9.40;1.00
1049;DHT22;513;51.444;7.196;2022-11-23T10:10:21;9.40;1.00
1049;DHT22;513;51.444;7.196;2022-11-23T10:12:58;9.50;1.00
1049;DHT22;513;51.444;7.196;2022-11-23T10:15:28;9.40;1.00
1049;DHT22;513;51.444;7.196;2022-11-23T10:18:16;9.30;1.00
1049;DHT22;513;51.444;7.196;2022-11-23T10:20:52;9.30;1.00
1049;DHT22;513;51.444;7.196;2022-11-23T10:23:35;9.40;1.00
1049;DHT22;513;51.444;7.196;2022-11-23T10:26:09;9.40;1.00
1049;DHT22;513;51.444;7.196;2022-11-23T10:28:37;9.40;1.00
1049;DHT22;513;51.444;7.196;2022-11-23T10:31:11;9.50;1.00
1049;DHT22;513;51.444;7.196;2022-11-23T10:33:44;9.50;1.00
1049;DHT22;513;51.444;7.196;2022-11-23T10:36:13;9.60;99.90
1049;DHT22;513;51.444;7.196;2022-11-23T10:38:42;9.60;1.00
1049;DHT22;513;51.444;7.196;2022-11-23T10:41:10;9.50;99.90
1049;DHT22;513;51.444;7.196;2022-11-23T10:43:41;9.40;99.90
1049;DHT22;513;51.444;7.196;2022-11-23T10:46:24;9.50;1.00
1049;DHT22;513;51.444;7.196;2022-11-23T10:48:51;9.60;1.00
1049;DHT22;513;51.444;7.196;2022-11-23T10:51:26;9.60;99.90
1049;DHT22;513;51.444;7.196;2022-11-23T10:53:57;9.50;99.90
1049;DHT22;513;51.444;7.196;2022-11-23T10:56:25;9.50;99.90
1049;DHT22;513;51.444;7.196;2022-11-23T10:58:52;9.50;99.90
1049;DHT22;513;51.444;7.196;2022-11-23T11:01:20;9.50;99.90
1049;DHT22;513;51.444;7.196;2022-11-23T11:03:50;9.50;99.90
1049;DHT22;513;51.444;7.196;2022-11-23T11:06:24;9.50;99.90
1049;DHT22;513;51.444;7.196;2022-11-23T11:08:53;9.60;99.90
1049;DHT22;513;51.444;7.196;2022-11-23T11:11:29;9.60;99.90
1049;DHT22;513;51.444;7.196;2022-11-23T11:14:02;9.50;99.90
1049;DHT22;513;51.444;7.196;2022-11-23T11:16:31;9.50;99.90
1049;DHT22;513;51.444;7.196;2022-11-23T11:18:58;9.50;99.90
1049;DHT22;513;51.444;7.196;2022-11-23T11:21:31;9.60;1.00
1049;DHT22;513;51.444;7.196;2022-11-23T11:24:00;9.60;1.00
1049;DHT22;513;51.444;7.196;2022-11-23T11:26:30;9.60;1.00
1049;DHT22;513;51.444;7.196;2022-11-23T11:28:59;9.60;1.00
1049;DHT22;513;51.444;7.196;2022-11-23T11:31:42;9.70;66.00
1049;DHT22;513;51.444;7.196;2022-11-23T11:34:17;9.70;1.00
1049;DHT22;513;51.444;7.196;2022-11-23T11:36:49;9.80;99.90
1049;DHT22;513;51.444;7.196;2022-11-23T11:39:23;9.80;1.00
1049;DHT22;513;51.444;7.196;2022-11-23T11:41:53;9.70;1.00
1049;DHT22;513;51.444;7.196;2022-11-23T11:44:23;9.70;18.00
1049;DHT22;513;51.444;7.196;2022-11-23T11:46:55;9.70;1.00
1049;DHT22;513;51.444;7.196;2022-11-23T11:49:24;9.70;99.90
1049;DHT22;513;51.444;7.196;2022-11-23T11:51:55;9.70;1.00
1049;DHT22;513;51.444;7.196;2022-11-23T11:54:27;9.70;99.90
1049;DHT22;513;51.444;7.196;2022-11-23T11:57:01;9.70;99.90
1049;DHT22;513;51.444;7.196;2022-11-23T11:59:32;9.80;97.40
1049;DHT22;513;51.444;7.196;2022-11-23T12:02:17;9.80;99.90
1049;DHT22;513;51.444;7.196;2022-11-23T12:04:49;9.80;1.00
1049;DHT22;513;51.444;7.196;2022-11-23T12:07:26;9.80;1.00
1049;DHT22;513;51.444;7.196;2022-11-23T12:09:59;9.70;1.00
1049;DHT22;513;51.444;7.196;2022-11-23T12:12:29;9.80;1.00
1049;DHT22;513;51.444;7.196;2022-11-23T12:14:57;9.70;99.90
1049;DHT22;513;51.444;7.196;2022-11-23T12:17:38;9.70;99.90
1049;DHT22;513;51.444;7.196;2022-11-23T12:20:12;9.70;1.00
1049;DHT22;513;51.444;7.196;2022-11-23T12:22:50;9.90;1.00
1049;DHT22;513;51.444;7.196;2022-11-23T12:25:25;10.00;1.00
1049;DHT22;513;51.444;7.196;2022-11-23T12:28:03;9.90;99.90
1049;DHT22;513;51.444;7.196;2022-11-23T12:30:41;9.70;1.00
1049;DHT22;513;51.444;7.196;2022-11-23T12:33:29;9.70;99.90
1049;DHT22;513;51.444;7.196;2022-11-23T12:36:21;9.90;99.90
1049;DHT22;513;51.444;7.196;2022-11-23T12:38:53;10.00;1.00
1049;DHT22;513;51.444;7.196;2022-11-23T12:41:31;10.00;77.50
1049;DHT22;513;51.444;7.196;2022-11-23T12:44:23;9.80;1.00
1049;DHT22;513;51.444;7.196;2022-11-23T12:47:00;9.90;99.90
1049;DHT22;513;51.444;7.196;2022-11-23T12:49:37;9.80;1.00
1049;DHT22;513;51.444;7.196;2022-11-23T12:52:18;9.70;1.00
1049;DHT22;513;51.444;7.196;2022-11-23T12:54:55;9.80;65.90
1049;DHT22;513;51.444;7.196;2022-11-23T12:57:30;9.90;12.90
1049;DHT22;513;51.444;7.196;2022-11-23T13:00:02;9.80;56.20
1049;DHT22;513;51.444;7.196;2022-11-23T13:03:12;9.90;99.90
1049;DHT22;513;51.444;7.196;2022-11-23T13:05:59;9.90;19.20
1049;DHT22;513;51.444;7.196;2022-11-23T13:08:50;9.90;1.00
1049;DHT22;513;51.444;7.196;2022-11-23T13:11:30;10.00;1.00
1049;DHT22;513;51.444;7.196;2022-11-23T13:14:12;9.80;99.90
1049;DHT22;513;51.444;7.196;2022-11-23T13:17:06;9.70;99.90
1049;DHT22;513;51.444;7.196;2022-11-23T13:19:52;9.70;99.90
1049;DHT22;513;51.444;7.196;2022-11-23T13:22:20;9.60;1.00
1049;DHT22;513;51.444;7.196;2022-11-23T13:25:13;9.60;99.90
1049;DHT22;513;51.444;7.196;2022-11-23T13:27:53;9.50;99.90
1049;DHT22;513;51.444;7.196;2022-11-23T13:30:24;9.50;1.00
1049;DHT22;513;51.444;7.196;2022-11-23T13:32:56;9.40;99.90
1049;DHT22;513;51.444;7.196;2022-11-23T13:35:52;9.40;99.90
1049;DHT22;513;51.444;7.196;2022-11-23T13:38:40;9.30;1.00
1049;DHT22;513;51.444;7.196;2022-11-23T13:44:19;9.20;1.00
1049;DHT22;513;51.444;7.196;2022-11-23T13:46:58;9.10;1.00
1049;DHT22;513;51.444;7.196;2022-11-23T13:49:31;9.00;1.00
1049;DHT22;513;51.444;7.196;2022-11-23T13:52:26;9.10;1.00
1049;DHT22;513;51.444;7.196;2022-11-23T13:55:00;9.10;99.90
1049;DHT22;513;51.444;7.196;2022-11-23T13:57:27;9.00;1.00
1049;DHT22;513;51.444;7.196;2022-11-23T14:06:13;8.90;1.00
1049;DHT22;513;51.444;7.196;2022-11-23T14:08:42;8.90;1.00
1049;DHT22;513;51.444;7.196;2022-11-23T14:11:11;8.80;1.00
1049;DHT22;513;51.444;7.196;2022-11-23T14:13:47;8.80;99.90
1049;DHT22;513;51.444;7.196;2022-11-23T14:16:27;8.70;99.90
1049;DHT22;513;51.444;7.196;2022-11-23T14:19:04;8.70;99.90
1049;DHT22;513;51.444;7.196;2022-11-23T14:21:38;8.60;99.90
1049;DHT22;513;51.444;7.196;2022-11-23T14:24:30;8.60;99.90
1049;DHT22;513;51.444;7.196;2022-11-23T14:27:14;8.60;1.00
1049;DHT22;513;51.444;7.196;2022-11-23T14:32:50;8.60;1.00
1049;DHT22;513;51.444;7.196;2022-11-23T14:35:23;8.50;39.60
1049;DHT22;513;51.444;7.196;2022-11-23T14:40:58;8.50;98.30
1049;DHT22;513;51.444;7.196;2022-11-23T14:43:27;8.40;1.00
1049;DHT22;513;51.444;7.196;2022-11-23T14:45:59;8.40;99.90
1049;DHT22;513;51.444;7.196;2022-11-23T14:48:27;8.40;99.90
1049;DHT22;513;51.444;7.196;2022-11-23T14:50:56;8.30;1.00
1049;DHT22;513;51.444;7.196;2022-11-23T14:53:28;8.30;1.00
1049;DHT22;513;51.444;7.196;2022-11-23T14:55:56;8.20;1.00
1049;DHT22;513;51.444;7.196;2022-11-23T14:58:24;8.20;1.00
1049;DHT22;513;51.444;7.196;2022-11-23T15:00:58;8.30;1.00
1049;DHT22;513;51.444;7.196;2022-11-23T15:03:27;8.20;1.00
1049;DHT22;513;51.444;7.196;2022-11-23T15:05:57;8.30;1.00
1049;DHT22;513;51.444;7.196;2022-11-23T15:08:34;8.20;1.00
1049;DHT22;513;51.444;7.196;2022-11-23T15:11:07;8.20;1.00
1049;DHT22;513;51.444;7.196;2022-11-23T15:13:41;8.20;1.00
1049;DHT22;513;51.444;7.196;2022-11-23T15:16:11;8.20;1.00
1049;DHT22;513;51.444;7.196;2022-11-23T15:18:38;8.10;1.00
1049;DHT22;513;51.444;7.196;2022-11-23T15:21:15;8.10;99.90
1049;DHT22;513;51.444;7.196;2022-11-23T15:23:46;8.20;88.80
1049;DHT22;513;51.444;7.196;2022-11-23T15:26:15;8.20;1.00
1049;DHT22;513;51.444;7.196;2022-11-23T15:28:42;8.20;1.00
1049;DHT22;513;51.444;7.196;2022-11-23T15:31:29;8.20;1.00
1049;DHT22;513;51.444;7.196;2022-11-23T15:33:58;8.30;1.00
1049;DHT22;513;51.444;7.196;2022-11-23T15:36:29;8.30;1.00
1049;DHT22;513;51.444;7.196;2022-11-23T15:38:59;8.40;1.00
1049;DHT22;513;51.444;7.196;2022-11-23T15:41:27;8.40;1.00
1049;DHT22;513;51.444;7.196;2022-11-23T15:43:56;8.40;1.00
1049;DHT22;513;51.444;7.196;2022-11-23T15:46:25;8.40;1.00
1049;DHT22;513;51.444;7.196;2022-11-23T15:48:53;8.40;1.00
1049;DHT22;513;51.444;7.196;2022-11-23T15:51:24;8.40;1.00
1049;DHT22;513;51.444;7.196;2022-11-23T15:53:52;8.40;99.90
1049;DHT22;513;51.444;7.196;2022-11-23T15:56:22;8.50;99.90
1049;DHT22;513;51.444;7.196;2022-11-23T15:58:51;8.40;99.90
1049;DHT22;513;51.444;7.196;2022-11-23T16:01:18;8.50;99.90
1049;DHT22;513;51.444;7.196;2022-11-23T16:03:50;8.50;99.90
1049;DHT22;513;51.444;7.196;2022-11-23T16:06:27;8.50;99.90
1049;DHT22;513;51.444;7.196;2022-11-23T16:08:58;8.50;99.90
1049;DHT22;513;51.444;7.196;2022-11-23T16:11:32;8.50;1.00
1049;DHT22;513;51.444;7.196;2022-11-23T16:14:14;8.40;99.90
1049;DHT22;513;51.444;7.196;2022-11-23T16:16:42;8.40;32.40
1049;DHT22;513;51.444;7.196;2022-11-23T16:19:21;8.50;99.90
1049;DHT22;513;51.444;7.196;2022-11-23T16:21:49;8.40;1.00
1049;DHT22;513;51.444;7.196;2022-11-23T16:24:20;8.40;25.30
1049;DHT22;513;51.444;7.196;2022-11-23T16:26:49;8.30;1.00
1049;DHT22;513;51.444;7.196;2022-11-23T16:29:20;8.20;99.90
1049;DHT22;513;51.444;7.196;2022-11-23T16:31:53;8.20;99.90
1049;DHT22;513;51.444;7.196;2022-11-23T16:34:20;8.10;1.00
1049;DHT22;513;51.444;7.196;2022-11-23T16:36:46;8.10;1.00
1049;DHT22;513;51.444;7.196;2022-11-23T16:39:13;8.00;1.00
1049;DHT22;513;51.444;7.196;2022-11-23T16:41:40;7.90;6.30
1049;DHT22;513;51.444;7.196;2022-11-23T16:44:08;7.80;32.00
1049;DHT22;513;51.444;7.196;2022-11-23T16:46:34;7.80;59.20
1049;DHT22;513;51.444;7.196;2022-11-23T16:49:01;7.70;93.80
1049;DHT22;513;51.444;7.196;2022-11-23T16:51:28;7.50;99.90
1049;DHT22;513;51.444;7.196;2022-11-23T16:53:56;7.60;99.90
1049;DHT22;513;51.444;7.196;2022-11-23T16:56:24;7.50;99.90
1049;DHT22;513;51.444;7.196;2022-11-23T16:58:52;7.50;99.90
1049;DHT22;513;51.444;7.196;2022-11-23T17:01:22;7.40;99.90
1049;DHT22;513;51.444;7.196;2022-11-23T17:03:49;7.30;99.90
1049;DHT22;513;51.444;7.196;2022-11-23T17:06:16;7.30;99.90
1049;DHT22;513;51.444;7.196;2022-11-23T17:08:47;7.30;99.90
1049;DHT22;513;51.444;7.196;2022-11-23T17:11:15;7.20;99.90
1049;DHT22;513;51.444;7.196;2022-11-23T17:13:44;7.20;99.90